CheckWX is a tool to help pilots better visualize weather data.  It is not intended as a substitute for an official pre-flight weather briefing.

12:05:01 UTC

LGTL TAF
Kasteli Airport
Crete Island, Greece
TAF LGTL 040500Z 0406/0415 15015G28KT 9999 FEW012 SCT025 BKN080 PROB30 TEMPO 0405/0414 6000 RA BECMG 0413/0415 18010KT

Apr-4@
05:00 UTC

Apr-4 @ 05:00 UTC

Apr-4@
14:00 UTC

Apr-4 @ 14:00 UTC

PROB30 TEMPO 0405/0414 6000 RA

Temporary - 30% Likelihood

Temporary - 30% Likelihood during this time.

Conditions
Rain
Cloud Levels

Apr-4@
06:00 UTC

Apr-4 @ 06:00 UTC

Apr-4@
13:00 UTC

Apr-4 @ 13:00 UTC

TAF LGTL 040500Z 0406/0415 15015G28KT 9999 FEW012 SCT025 BKN080
Wind
  • 150° at 15 KTS
  • {Gusting to 28 KTS
Cloud Levels
  • Few at 1,200' AGL
  • Scattered at 2,500' AGL
  • Broken at 8,000' AGL

Apr-4@
13:00 UTC

Apr-4 @ 13:00 UTC

Apr-4@
15:00 UTC

Apr-4 @ 15:00 UTC

BECMG 0413/0415 18010KT

Becoming

Becoming Conditions expected by Sat, Apr 4, 2020 @ 15:00 UTC

Wind
  • 180° at 10 KTS
Cloud Levels
  • Few at 1,200' AGL
  • Scattered at 2,500' AGL
  • Broken at 8,000' AGL